Time;durP1;ratioP1;P1;durP2;ratioP2;P2;SDS_P1;SDS_P2;PMS_P1;PMS_P2;Temp;Humidity;BMP_temperature;BMP_pressure;BME280_temperature;BME280_humidity;BME280_pressure;Samples;Min_cycle;Max_cycle;Signal;HPM_P1;HPM_P2
2022/10/22 00:02:18;;;;;;;;;;;;;;;13.11;54.91;99640.44;4341608;32;32761;-90
2022/10/22 00:04:50;;;;;;;;;;;;;;;13.21;54.96;99640.16;4345903;33;33607;-87
2022/10/22 00:07:22;;;;;;;;;;;;;;;13.04;55.58;99639.72;4343513;32;34846;-84
2022/10/22 00:09:54;;;;;;;;;;;;;;;13.27;55.19;99641.81;4340160;33;33397;-88
2022/10/22 00:12:22;;;;;;;;;;;;;;;13.20;55.29;99641.06;4349511;32;33039;-85
2022/10/22 00:14:53;;;;;;;;;;;;;;;13.37;53.99;99640.69;4349784;32;33081;-85
2022/10/22 00:17:23;;;;;;;;;;;;;;;13.27;54.52;99641.81;4345380;32;35008;-85
2022/10/22 00:19:52;;;;;;;;;;;;;;;13.23;54.85;99634.94;4351514;32;33987;-85
2022/10/22 00:22:21;;;;;;;;;;;;;;;13.15;55.17;99644.69;4352282;32;31468;-88
2022/10/22 00:24:58;;;;;;;;;;;;;;;13.02;55.71;99649.31;4354485;32;33463;-88
2022/10/22 00:27:27;;;;;;;;;;;;;;;13.12;55.58;99643.03;4358512;32;33569;-86
2022/10/22 00:29:55;;;;;;;;;;;;;;;13.17;55.63;99632.50;4357411;32;33263;-85
2022/10/22 00:32:28;;;;;;;;;;;;;;;13.13;55.80;99633.44;4347021;32;32503;-86
2022/10/22 00:34:57;;;;;;;;;;;;;;;13.23;55.58;99634.94;4339935;32;33490;-84
2022/10/22 00:37:30;;;;;;;;;;;;;;;13.23;55.62;99629.72;4347807;32;34621;-89
2022/10/22 00:39:59;;;;;;;;;;;;;;;13.27;55.35;99628.78;4355442;32;33811;-82
2022/10/22 00:42:30;;;;;;;;;;;;;;;13.30;55.44;99628.69;4355964;32;32930;-83
2022/10/22 00:45:16;;;;;;;;;;;;;;;13.25;55.72;99622.72;4353761;32;34158;-83
2022/10/22 00:47:46;;;;;;;;;;;;;;;13.16;56.05;99621.19;4350399;32;34091;-84
2022/10/22 00:50:15;;;;;;;;;;;;;;;13.20;56.31;99608.97;4344605;32;33911;-84
2022/10/22 00:52:47;;;;;;;;;;;;;;;13.19;56.11;99615.94;4359920;32;32466;-85
2022/10/22 00:55:15;;;;;;;;;;;;;;;13.23;55.91;99617.53;4348248;32;32854;-84
2022/10/22 00:57:44;;;;;;;;;;;;;;;13.26;55.83;99616.59;4351295;32;33617;-84
2022/10/22 01:00:16;;;;;;;;;;;;;;;13.24;55.80;99627.09;4352345;32;33634;-83
2022/10/22 01:02:53;;;;;;;;;;;;;;;13.34;55.34;99616.47;4359928;32;32892;-86
2022/10/22 01:05:22;;;;;;;;;;;;;;;13.38;54.72;99618.09;4353672;32;34422;-87
2022/10/22 01:07:53;;;;;;;;;;;;;;;13.22;55.23;99625.41;4352582;32;34109;-84
2022/10/22 01:10:25;;;;;;;;;;;;;;;13.16;55.61;99618.59;4351824;32;33376;-85
2022/10/22 01:13:02;;;;;;;;;;;;;;;13.16;55.72;99622.94;4346732;32;33218;-84
2022/10/22 01:15:36;;;;;;;;;;;;;;;13.12;56.00;99622.19;4356523;32;33646;-84
2022/10/22 01:18:07;;;;;;;;;;;;;;;13.24;55.89;99621.03;4355386;32;33773;-87
2022/10/22 01:20:51;;;;;;;;;;;;;;;13.16;55.91;99622.94;4345029;32;34169;-88
2022/10/22 01:23:33;;;;;;;;;;;;;;;13.21;55.76;99623.69;4347292;32;32879;-86
2022/10/22 01:26:07;;;;;;;;;;;;;;;13.10;56.07;99620.50;4341495;32;34850;-84
2022/10/22 01:28:51;;;;;;;;;;;;;;;13.12;55.79;99627.41;4350405;32;34014;-90
2022/10/22 01:31:20;;;;;;;;;;;;;;;13.13;55.74;99620.44;4353940;32;33839;-84
2022/10/22 01:33:51;;;;;;;;;;;;;;;13.03;56.16;99618.03;4356080;32;32507;-87
2022/10/22 01:36:21;;;;;;;;;;;;;;;13.03;56.32;99625.00;4356396;32;34084;-85
2022/10/22 01:38:56;;;;;;;;;;;;;;;12.91;56.67;99623.56;4353586;32;34826;-86
2022/10/22 01:41:28;;;;;;;;;;;;;;;12.89;56.84;99624.47;4350989;32;33677;-85
2022/10/22 01:43:58;;;;;;;;;;;;;;;12.96;56.69;99618.25;4345491;32;33436;-87
2022/10/22 01:46:27;;;;;;;;;;;;;;;12.99;56.61;99618.16;4344189;33;33826;-85
2022/10/22 01:49:00;;;;;;;;;;;;;;;12.76;57.11;99624.78;4342587;32;33789;-86
2022/10/22 01:51:39;;;;;;;;;;;;;;;12.88;57.05;99620.16;4354390;32;33601;-87
2022/10/22 01:54:12;;;;;;;;;;;;;;;12.89;56.92;99614.91;4360670;32;32428;-84
2022/10/22 01:56:45;;;;;;;;;;;;;;;12.96;56.73;99606.06;4356104;32;34789;-89
2022/10/22 01:59:16;;;;;;;;;;;;;;;13.02;56.49;99605.06;4357590;32;33713;-84
2022/10/22 02:01:47;;;;;;;;;;;;;;;13.05;56.17;99610.22;4352797;32;33911;-85
2022/10/22 02:04:23;;;;;;;;;;;;;;;13.00;56.48;99612.91;4352969;32;33213;-84
2022/10/22 02:06:52;;;;;;;;;;;;;;;12.94;56.65;99602.63;4355967;32;34043;-87
2022/10/22 02:09:23;;;;;;;;;;;;;;;12.94;56.44;99607.84;4352815;32;33809;-87
2022/10/22 02:11:52;;;;;;;;;;;;;;;12.91;56.58;99596.66;4347054;32;33582;-85
2022/10/22 02:14:25;;;;;;;;;;;;;;;12.74;57.05;99592.72;4353990;32;31184;-88
2022/10/22 02:16:56;;;;;;;;;;;;;;;12.62;57.36;99595.59;4355001;32;33900;-84
2022/10/22 02:19:28;;;;;;;;;;;;;;;12.70;57.07;99587.59;4356409;32;33567;-85
2022/10/22 02:21:57;;;;;;;;;;;;;;;12.93;55.78;99590.53;4351084;32;33654;-85
2022/10/22 02:24:26;;;;;;;;;;;;;;;12.98;55.53;99604.28;4351583;32;33271;-83
2022/10/22 02:27:04;;;;;;;;;;;;;;;12.90;55.75;99600.16;4360287;32;32876;-84
2022/10/22 02:29:35;;;;;;;;;;;;;;;12.90;55.87;99589.72;4352606;32;34034;-86
2022/10/22 02:32:06;;;;;;;;;;;;;;;12.98;56.07;99599.06;4354138;32;33750;-89
2022/10/22 02:34:34;;;;;;;;;;;;;;;12.98;56.08;99593.03;4354265;32;33768;-89
2022/10/22 02:37:08;;;;;;;;;;;;;;;12.99;56.06;99594.72;4358399;32;34701;-84
2022/10/22 02:39:37;;;;;;;;;;;;;;;13.01;55.95;99605.97;4349418;32;33890;-86
2022/10/22 02:42:07;;;;;;;;;;;;;;;12.94;55.95;99604.41;4359252;32;34177;-89
2022/10/22 02:44:37;;;;;;;;;;;;;;;12.82;56.36;99608.16;4354164;32;33897;-84
2022/10/22 02:47:07;;;;;;;;;;;;;;;12.94;56.08;99610.44;4351635;32;34153;-84
2022/10/22 02:49:36;;;;;;;;;;;;;;;12.78;56.58;99627.31;4354912;32;34982;-84
2022/10/22 02:52:06;;;;;;;;;;;;;;;12.76;56.76;99629.13;4358148;32;33725;-84
2022/10/22 02:54:39;;;;;;;;;;;;;;;12.80;56.57;99628.16;4345982;32;34045;-87
2022/10/22 02:57:08;;;;;;;;;;;;;;;12.70;56.82;99630.09;4352627;32;33580;-87
2022/10/22 02:59:43;;;;;;;;;;;;;;;12.56;57.37;99619.16;4354056;32;34465;-83
2022/10/22 03:02:12;;;;;;;;;;;;;;;12.67;57.12;99619.78;4353921;32;34783;-84
2022/10/22 03:04:41;;;;;;;;;;;;;;;12.64;57.08;99612.03;4359070;32;32806;-87
2022/10/22 03:07:09;;;;;;;;;;;;;;;12.75;56.77;99623.03;4355769;32;34446;-84
